Terminal Aerodrome Forecast
Issued by NWS

Home | Current Version | Previous Version | Graphics & Text | Print | Product List | Glossary On
Versions: 1 2 3 4 5 6 7 8 9 10 11 12 13 14 15 16 17 18 19
000
FTUS43 KMPX 221700
TAFAXN
TAF
KAXN 221740Z 2218/2318 02006KT P6SM SCT030
     FM230500 05005KT P6SM BKN022
     FM230900 07005KT 4SM BR BKN015
     FM231400 11007KT 4SM BR VCSH BKN020 OVC090=

USA.gov is the U.S. government's official web portal to all federal, state and local government web resources and services.